sensor_id;sensor_type;location;lat;lon;timestamp;temperature;humidity
22540;DHT22;11436;50.860;4.334;2022-10-16T00:01:25;15.40;99.90
22540;DHT22;11436;50.860;4.334;2022-10-16T00:03:51;15.40;99.90
22540;DHT22;11436;50.860;4.334;2022-10-16T00:06:20;15.40;99.90
22540;DHT22;11436;50.860;4.334;2022-10-16T00:08:46;15.40;99.90
22540;DHT22;11436;50.860;4.334;2022-10-16T00:11:18;15.40;99.90
22540;DHT22;11436;50.860;4.334;2022-10-16T00:13:47;15.40;99.90
22540;DHT22;11436;50.860;4.334;2022-10-16T00:16:14;15.20;99.90
22540;DHT22;11436;50.860;4.334;2022-10-16T00:18:41;15.30;99.90
22540;DHT22;11436;50.860;4.334;2022-10-16T00:21:15;15.30;99.90
22540;DHT22;11436;50.860;4.334;2022-10-16T00:23:41;15.20;99.90
22540;DHT22;11436;50.860;4.334;2022-10-16T00:26:10;15.20;99.90
22540;DHT22;11436;50.860;4.334;2022-10-16T00:28:37;15.20;99.90
22540;DHT22;11436;50.860;4.334;2022-10-16T00:31:05;15.20;99.90
22540;DHT22;11436;50.860;4.334;2022-10-16T00:33:31;15.20;99.90
22540;DHT22;11436;50.860;4.334;2022-10-16T00:36:01;15.20;99.90
22540;DHT22;11436;50.860;4.334;2022-10-16T00:38:27;15.10;99.90
22540;DHT22;11436;50.860;4.334;2022-10-16T00:40:53;15.10;99.90
22540;DHT22;11436;50.860;4.334;2022-10-16T00:46:26;15.10;99.90
22540;DHT22;11436;50.860;4.334;2022-10-16T00:49:17;15.20;99.90
22540;DHT22;11436;50.860;4.334;2022-10-16T00:51:52;15.10;99.90
22540;DHT22;11436;50.860;4.334;2022-10-16T00:54:22;15.00;99.90
22540;DHT22;11436;50.860;4.334;2022-10-16T00:56:49;15.00;99.90
22540;DHT22;11436;50.860;4.334;2022-10-16T00:59:19;15.00;99.90
22540;DHT22;11436;50.860;4.334;2022-10-16T01:01:46;14.90;99.90
22540;DHT22;11436;50.860;4.334;2022-10-16T01:04:12;14.90;99.90
22540;DHT22;11436;50.860;4.334;2022-10-16T01:07:14;14.90;99.90
22540;DHT22;11436;50.860;4.334;2022-10-16T01:10:40;14.90;99.90
22540;DHT22;11436;50.860;4.334;2022-10-16T01:18:11;15.00;99.90
22540;DHT22;11436;50.860;4.334;2022-10-16T01:28:51;14.90;99.90
22540;DHT22;11436;50.860;4.334;2022-10-16T01:31:20;14.90;99.90
22540;DHT22;11436;50.860;4.334;2022-10-16T01:33:51;14.90;99.90
22540;DHT22;11436;50.860;4.334;2022-10-16T01:36:25;14.80;99.90
22540;DHT22;11436;50.860;4.334;2022-10-16T01:38:53;14.80;99.90
22540;DHT22;11436;50.860;4.334;2022-10-16T01:41:21;14.80;99.90
22540;DHT22;11436;50.860;4.334;2022-10-16T01:46:26;14.80;99.90
22540;DHT22;11436;50.860;4.334;2022-10-16T01:48:53;14.90;99.90
22540;DHT22;11436;50.860;4.334;2022-10-16T01:51:20;14.80;99.90
22540;DHT22;11436;50.860;4.334;2022-10-16T01:53:50;14.90;99.90
22540;DHT22;11436;50.860;4.334;2022-10-16T01:56:18;14.90;99.90
22540;DHT22;11436;50.860;4.334;2022-10-16T01:58:58;15.00;99.90
22540;DHT22;11436;50.860;4.334;2022-10-16T02:01:27;14.90;99.90
22540;DHT22;11436;50.860;4.334;2022-10-16T02:03:57;14.90;99.90
22540;DHT22;11436;50.860;4.334;2022-10-16T02:06:25;14.90;99.90
22540;DHT22;11436;50.860;4.334;2022-10-16T02:08:51;14.90;99.90
22540;DHT22;11436;50.860;4.334;2022-10-16T02:11:17;14.80;99.90
22540;DHT22;11436;50.860;4.334;2022-10-16T02:13:46;14.80;99.90
22540;DHT22;11436;50.860;4.334;2022-10-16T02:16:14;14.90;99.90
22540;DHT22;11436;50.860;4.334;2022-10-16T02:18:40;14.80;99.90
22540;DHT22;11436;50.860;4.334;2022-10-16T02:21:26;14.70;99.90
22540;DHT22;11436;50.860;4.334;2022-10-16T02:24:02;14.70;99.90
22540;DHT22;11436;50.860;4.334;2022-10-16T02:26:52;14.70;99.90
22540;DHT22;11436;50.860;4.334;2022-10-16T02:29:25;14.70;99.90
22540;DHT22;11436;50.860;4.334;2022-10-16T02:31:55;14.70;99.90
22540;DHT22;11436;50.860;4.334;2022-10-16T02:34:24;14.70;99.90
22540;DHT22;11436;50.860;4.334;2022-10-16T02:36:52;14.70;99.90
22540;DHT22;11436;50.860;4.334;2022-10-16T02:39:20;14.80;99.90
22540;DHT22;11436;50.860;4.334;2022-10-16T02:41:47;14.70;99.90
22540;DHT22;11436;50.860;4.334;2022-10-16T02:44:12;14.70;99.90
22540;DHT22;11436;50.860;4.334;2022-10-16T02:46:38;14.70;99.90
22540;DHT22;11436;50.860;4.334;2022-10-16T02:49:04;14.70;99.90
22540;DHT22;11436;50.860;4.334;2022-10-16T02:51:30;14.70;99.90
22540;DHT22;11436;50.860;4.334;2022-10-16T02:53:55;14.60;99.90
22540;DHT22;11436;50.860;4.334;2022-10-16T02:56:21;14.70;99.90
22540;DHT22;11436;50.860;4.334;2022-10-16T02:58:47;14.70;99.90
22540;DHT22;11436;50.860;4.334;2022-10-16T03:01:12;14.70;99.90
22540;DHT22;11436;50.860;4.334;2022-10-16T03:03:39;14.70;99.90
22540;DHT22;11436;50.860;4.334;2022-10-16T03:06:05;14.60;99.90
22540;DHT22;11436;50.860;4.334;2022-10-16T03:08:31;14.60;99.90
22540;DHT22;11436;50.860;4.334;2022-10-16T03:10:57;14.70;99.90
22540;DHT22;11436;50.860;4.334;2022-10-16T03:13:22;14.70;99.90
22540;DHT22;11436;50.860;4.334;2022-10-16T03:15:48;14.70;99.90
22540;DHT22;11436;50.860;4.334;2022-10-16T03:18:14;14.60;99.90
22540;DHT22;11436;50.860;4.334;2022-10-16T03:20:40;14.70;99.90
22540;DHT22;11436;50.860;4.334;2022-10-16T03:23:06;14.60;99.90
22540;DHT22;11436;50.860;4.334;2022-10-16T03:25:35;14.70;99.90
22540;DHT22;11436;50.860;4.334;2022-10-16T03:28:00;14.70;99.90
22540;DHT22;11436;50.860;4.334;2022-10-16T03:30:27;14.60;99.90
22540;DHT22;11436;50.860;4.334;2022-10-16T03:32:52;14.60;99.90
22540;DHT22;11436;50.860;4.334;2022-10-16T03:35:23;14.50;99.90
22540;DHT22;11436;50.860;4.334;2022-10-16T03:37:50;14.50;99.90
22540;DHT22;11436;50.860;4.334;2022-10-16T03:40:16;14.50;99.90
22540;DHT22;11436;50.860;4.334;2022-10-16T03:42:43;14.60;99.90
22540;DHT22;11436;50.860;4.334;2022-10-16T03:45:10;14.70;99.90
22540;DHT22;11436;50.860;4.334;2022-10-16T03:47:36;14.70;99.90
22540;DHT22;11436;50.860;4.334;2022-10-16T03:50:02;14.70;99.90
22540;DHT22;11436;50.860;4.334;2022-10-16T03:52:28;14.70;99.90
22540;DHT22;11436;50.860;4.334;2022-10-16T03:54:54;14.70;99.90
22540;DHT22;11436;50.860;4.334;2022-10-16T03:57:20;14.70;99.90
22540;DHT22;11436;50.860;4.334;2022-10-16T03:59:46;14.70;99.90
22540;DHT22;11436;50.860;4.334;2022-10-16T04:02:12;14.60;99.90
22540;DHT22;11436;50.860;4.334;2022-10-16T04:04:38;14.60;99.90
22540;DHT22;11436;50.860;4.334;2022-10-16T04:07:05;14.60;99.90
22540;DHT22;11436;50.860;4.334;2022-10-16T04:09:30;14.60;99.90
22540;DHT22;11436;50.860;4.334;2022-10-16T04:11:56;14.60;99.90
22540;DHT22;11436;50.860;4.334;2022-10-16T04:14:22;14.60;99.90
22540;DHT22;11436;50.860;4.334;2022-10-16T04:16:48;14.60;99.90
22540;DHT22;11436;50.860;4.334;2022-10-16T04:19:13;14.60;99.90
22540;DHT22;11436;50.860;4.334;2022-10-16T04:21:39;14.50;99.90
22540;DHT22;11436;50.860;4.334;2022-10-16T04:24:05;14.50;99.90
22540;DHT22;11436;50.860;4.334;2022-10-16T04:26:30;14.60;99.90
22540;DHT22;11436;50.860;4.334;2022-10-16T04:28:56;14.50;99.90
22540;DHT22;11436;50.860;4.334;2022-10-16T04:31:22;14.50;99.90
22540;DHT22;11436;50.860;4.334;2022-10-16T04:33:48;14.60;99.90
22540;DHT22;11436;50.860;4.334;2022-10-16T04:36:13;14.70;99.90
22540;DHT22;11436;50.860;4.334;2022-10-16T04:38:41;14.70;99.90
22540;DHT22;11436;50.860;4.334;2022-10-16T04:41:07;14.60;99.90
22540;DHT22;11436;50.860;4.334;2022-10-16T04:43:33;14.50;99.90
22540;DHT22;11436;50.860;4.334;2022-10-16T04:45:59;14.50;99.90
22540;DHT22;11436;50.860;4.334;2022-10-16T04:48:25;14.60;99.90
22540;DHT22;11436;50.860;4.334;2022-10-16T04:50:50;14.50;99.90
22540;DHT22;11436;50.860;4.334;2022-10-16T04:53:16;14.50;99.90
22540;DHT22;11436;50.860;4.334;2022-10-16T04:55:43;14.50;99.90
22540;DHT22;11436;50.860;4.334;2022-10-16T04:58:09;14.50;99.90
22540;DHT22;11436;50.860;4.334;2022-10-16T05:00:35;14.50;99.90
22540;DHT22;11436;50.860;4.334;2022-10-16T05:03:01;14.50;99.90
22540;DHT22;11436;50.860;4.334;2022-10-16T05:05:27;14.50;99.90
22540;DHT22;11436;50.860;4.334;2022-10-16T05:07:53;14.40;99.90
22540;DHT22;11436;50.860;4.334;2022-10-16T05:10:19;14.40;99.90
22540;DHT22;11436;50.860;4.334;2022-10-16T05:12:46;14.40;99.90
22540;DHT22;11436;50.860;4.334;2022-10-16T05:15:12;14.40;99.90
22540;DHT22;11436;50.860;4.334;2022-10-16T05:17:38;14.40;99.90
22540;DHT22;11436;50.860;4.334;2022-10-16T05:20:04;14.40;99.90
22540;DHT22;11436;50.860;4.334;2022-10-16T05:22:30;14.30;99.90
22540;DHT22;11436;50.860;4.334;2022-10-16T05:24:56;14.30;99.90
22540;DHT22;11436;50.860;4.334;2022-10-16T05:27:21;14.20;99.90
22540;DHT22;11436;50.860;4.334;2022-10-16T05:29:48;14.30;99.90
22540;DHT22;11436;50.860;4.334;2022-10-16T05:32:15;14.30;99.90
22540;DHT22;11436;50.860;4.334;2022-10-16T05:34:41;14.30;99.90
22540;DHT22;11436;50.860;4.334;2022-10-16T05:37:08;14.20;99.90
22540;DHT22;11436;50.860;4.334;2022-10-16T05:39:33;14.20;99.90
22540;DHT22;11436;50.860;4.334;2022-10-16T05:41:59;14.20;99.90
22540;DHT22;11436;50.860;4.334;2022-10-16T05:44:25;14.30;99.90
22540;DHT22;11436;50.860;4.334;2022-10-16T05:46:51;14.30;99.90
22540;DHT22;11436;50.860;4.334;2022-10-16T05:49:17;14.30;99.90
22540;DHT22;11436;50.860;4.334;2022-10-16T05:51:42;14.30;99.90
22540;DHT22;11436;50.860;4.334;2022-10-16T05:54:08;14.30;99.90
22540;DHT22;11436;50.860;4.334;2022-10-16T05:56:34;14.30;99.90
22540;DHT22;11436;50.860;4.334;2022-10-16T05:59:00;14.30;99.90
22540;DHT22;11436;50.860;4.334;2022-10-16T06:01:25;14.30;99.90
22540;DHT22;11436;50.860;4.334;2022-10-16T06:03:52;14.30;99.90
22540;DHT22;11436;50.860;4.334;2022-10-16T06:06:20;14.30;99.90
22540;DHT22;11436;50.860;4.334;2022-10-16T06:08:47;14.20;99.90
22540;DHT22;11436;50.860;4.334;2022-10-16T06:11:18;14.20;99.90
22540;DHT22;11436;50.860;4.334;2022-10-16T06:13:45;14.20;99.90
22540;DHT22;11436;50.860;4.334;2022-10-16T06:16:14;14.20;99.90
22540;DHT22;11436;50.860;4.334;2022-10-16T06:18:40;14.30;99.90
22540;DHT22;11436;50.860;4.334;2022-10-16T06:21:10;14.30;99.90
22540;DHT22;11436;50.860;4.334;2022-10-16T06:23:37;14.20;99.90
22540;DHT22;11436;50.860;4.334;2022-10-16T06:26:08;14.20;99.90
22540;DHT22;11436;50.860;4.334;2022-10-16T06:28:34;14.30;99.90
22540;DHT22;11436;50.860;4.334;2022-10-16T06:31:01;14.30;99.90
22540;DHT22;11436;50.860;4.334;2022-10-16T06:33:27;14.30;99.90
22540;DHT22;11436;50.860;4.334;2022-10-16T06:35:52;14.40;99.90
22540;DHT22;11436;50.860;4.334;2022-10-16T06:38:18;14.40;99.90
22540;DHT22;11436;50.860;4.334;2022-10-16T06:40:44;14.40;99.90
22540;DHT22;11436;50.860;4.334;2022-10-16T06:43:10;14.50;99.90
22540;DHT22;11436;50.860;4.334;2022-10-16T06:45:35;14.50;99.90
22540;DHT22;11436;50.860;4.334;2022-10-16T06:48:01;14.50;99.90
22540;DHT22;11436;50.860;4.334;2022-10-16T06:50:27;14.50;99.90
22540;DHT22;11436;50.860;4.334;2022-10-16T06:52:53;14.60;99.90
22540;DHT22;11436;50.860;4.334;2022-10-16T06:55:18;14.50;99.90
22540;DHT22;11436;50.860;4.334;2022-10-16T06:57:47;14.50;99.90
22540;DHT22;11436;50.860;4.334;2022-10-16T07:00:14;14.50;99.90
22540;DHT22;11436;50.860;4.334;2022-10-16T07:02:39;14.50;99.90
22540;DHT22;11436;50.860;4.334;2022-10-16T07:05:05;14.40;99.90
22540;DHT22;11436;50.860;4.334;2022-10-16T07:07:31;14.40;99.90
22540;DHT22;11436;50.860;4.334;2022-10-16T07:09:57;14.40;99.90
22540;DHT22;11436;50.860;4.334;2022-10-16T07:12:23;14.50;99.90
22540;DHT22;11436;50.860;4.334;2022-10-16T07:14:49;14.50;99.90
22540;DHT22;11436;50.860;4.334;2022-10-16T07:17:17;14.50;99.90
22540;DHT22;11436;50.860;4.334;2022-10-16T07:19:44;14.60;99.90
22540;DHT22;11436;50.860;4.334;2022-10-16T07:22:10;14.60;99.90
22540;DHT22;11436;50.860;4.334;2022-10-16T07:24:35;14.70;99.90
22540;DHT22;11436;50.860;4.334;2022-10-16T07:27:01;14.60;99.90
22540;DHT22;11436;50.860;4.334;2022-10-16T07:29:27;14.70;99.90
22540;DHT22;11436;50.860;4.334;2022-10-16T07:31:53;14.80;99.90
22540;DHT22;11436;50.860;4.334;2022-10-16T07:34:21;14.90;99.90
22540;DHT22;11436;50.860;4.334;2022-10-16T07:36:50;14.80;99.90
22540;DHT22;11436;50.860;4.334;2022-10-16T07:39:17;14.80;99.90
22540;DHT22;11436;50.860;4.334;2022-10-16T07:41:42;14.90;99.90
22540;DHT22;11436;50.860;4.334;2022-10-16T07:44:08;14.90;99.90
22540;DHT22;11436;50.860;4.334;2022-10-16T07:46:35;15.00;99.90
22540;DHT22;11436;50.860;4.334;2022-10-16T07:49:02;15.00;99.90
22540;DHT22;11436;50.860;4.334;2022-10-16T07:51:28;15.00;99.90
22540;DHT22;11436;50.860;4.334;2022-10-16T07:53:54;14.90;99.90
22540;DHT22;11436;50.860;4.334;2022-10-16T07:56:20;14.90;99.90
22540;DHT22;11436;50.860;4.334;2022-10-16T07:58:47;14.90;99.90
22540;DHT22;11436;50.860;4.334;2022-10-16T08:01:15;15.00;99.90
22540;DHT22;11436;50.860;4.334;2022-10-16T08:03:46;15.00;99.90
22540;DHT22;11436;50.860;4.334;2022-10-16T08:06:13;15.10;99.90
22540;DHT22;11436;50.860;4.334;2022-10-16T08:08:39;15.10;99.90
22540;DHT22;11436;50.860;4.334;2022-10-16T08:11:04;15.10;99.90
22540;DHT22;11436;50.860;4.334;2022-10-16T08:13:31;15.10;99.90
22540;DHT22;11436;50.860;4.334;2022-10-16T08:15:57;15.20;99.90
22540;DHT22;11436;50.860;4.334;2022-10-16T08:18:23;15.30;99.90
22540;DHT22;11436;50.860;4.334;2022-10-16T08:20:55;15.40;99.90
22540;DHT22;11436;50.860;4.334;2022-10-16T08:23:22;15.40;99.90
22540;DHT22;11436;50.860;4.334;2022-10-16T08:25:48;15.40;99.90
22540;DHT22;11436;50.860;4.334;2022-10-16T08:28:13;15.40;99.90
22540;DHT22;11436;50.860;4.334;2022-10-16T08:30:39;15.40;99.90
22540;DHT22;11436;50.860;4.334;2022-10-16T08:33:05;15.50;99.90
22540;DHT22;11436;50.860;4.334;2022-10-16T08:35:31;15.50;99.90
22540;DHT22;11436;50.860;4.334;2022-10-16T08:37:57;15.60;99.90
22540;DHT22;11436;50.860;4.334;2022-10-16T08:40:28;15.50;99.90
22540;DHT22;11436;50.860;4.334;2022-10-16T08:50:55;15.80;99.90
22540;DHT22;11436;50.860;4.334;2022-10-16T08:53:28;15.80;99.90
22540;DHT22;11436;50.860;4.334;2022-10-16T08:55:55;15.60;99.90
22540;DHT22;11436;50.860;4.334;2022-10-16T08:58:23;15.70;99.90
22540;DHT22;11436;50.860;4.334;2022-10-16T09:00:57;15.70;99.90
22540;DHT22;11436;50.860;4.334;2022-10-16T09:13:14;16.00;99.90
22540;DHT22;11436;50.860;4.334;2022-10-16T09:15:39;16.10;99.90
22540;DHT22;11436;50.860;4.334;2022-10-16T09:21:13;16.20;99.90
22540;DHT22;11436;50.860;4.334;2022-10-16T09:23:40;16.10;99.90
22540;DHT22;11436;50.860;4.334;2022-10-16T09:26:10;16.20;99.90
22540;DHT22;11436;50.860;4.334;2022-10-16T09:28:37;16.30;99.90
22540;DHT22;11436;50.860;4.334;2022-10-16T09:31:02;16.30;99.90
22540;DHT22;11436;50.860;4.334;2022-10-16T09:33:33;16.20;99.90
22540;DHT22;11436;50.860;4.334;2022-10-16T09:36:03;16.20;99.90
22540;DHT22;11436;50.860;4.334;2022-10-16T09:38:32;16.20;99.90
22540;DHT22;11436;50.860;4.334;2022-10-16T09:41:00;16.40;99.90
22540;DHT22;11436;50.860;4.334;2022-10-16T09:46:25;16.60;99.90
22540;DHT22;11436;50.860;4.334;2022-10-16T09:48:55;16.70;99.90
22540;DHT22;11436;50.860;4.334;2022-10-16T09:51:44;16.60;99.90
22540;DHT22;11436;50.860;4.334;2022-10-16T09:54:20;16.60;99.90
22540;DHT22;11436;50.860;4.334;2022-10-16T09:56:46;16.70;99.90
22540;DHT22;11436;50.860;4.334;2022-10-16T09:59:21;16.80;99.90
22540;DHT22;11436;50.860;4.334;2022-10-16T10:01:55;17.00;99.90
22540;DHT22;11436;50.860;4.334;2022-10-16T10:04:23;17.10;99.90
22540;DHT22;11436;50.860;4.334;2022-10-16T10:06:52;17.00;99.90
22540;DHT22;11436;50.860;4.334;2022-10-16T10:09:24;16.90;99.90
22540;DHT22;11436;50.860;4.334;2022-10-16T10:11:58;16.80;99.90
22540;DHT22;11436;50.860;4.334;2022-10-16T10:14:39;16.90;99.90
22540;DHT22;11436;50.860;4.334;2022-10-16T10:22:45;17.40;99.90
22540;DHT22;11436;50.860;4.334;2022-10-16T10:31:03;17.50;99.90
22540;DHT22;11436;50.860;4.334;2022-10-16T10:39:00;17.70;99.90
22540;DHT22;11436;50.860;4.334;2022-10-16T10:42:08;17.70;99.90
22540;DHT22;11436;50.860;4.334;2022-10-16T10:47:47;17.90;99.90
22540;DHT22;11436;50.860;4.334;2022-10-16T10:52:54;18.30;99.90
22540;DHT22;11436;50.860;4.334;2022-10-16T11:00:46;18.60;99.90
22540;DHT22;11436;50.860;4.334;2022-10-16T11:06:00;18.80;99.90
22540;DHT22;11436;50.860;4.334;2022-10-16T11:08:53;18.70;99.90
22540;DHT22;11436;50.860;4.334;2022-10-16T11:11:35;18.50;99.90
22540;DHT22;11436;50.860;4.334;2022-10-16T11:14:30;18.40;99.90
22540;DHT22;11436;50.860;4.334;2022-10-16T11:17:12;18.40;99.90
22540;DHT22;11436;50.860;4.334;2022-10-16T11:20:19;18.60;99.90
22540;DHT22;11436;50.860;4.334;2022-10-16T11:22:52;18.90;99.90
22540;DHT22;11436;50.860;4.334;2022-10-16T11:25:24;19.10;99.90
22540;DHT22;11436;50.860;4.334;2022-10-16T11:30:22;19.20;99.90
22540;DHT22;11436;50.860;4.334;2022-10-16T11:38:38;19.00;99.90
22540;DHT22;11436;50.860;4.334;2022-10-16T11:44:18;18.90;99.90
22540;DHT22;11436;50.860;4.334;2022-10-16T11:46:58;18.50;99.90
22540;DHT22;11436;50.860;4.334;2022-10-16T11:49:26;18.50;99.90
22540;DHT22;11436;50.860;4.334;2022-10-16T11:52:13;18.60;99.90
22540;DHT22;11436;50.860;4.334;2022-10-16T11:57:41;18.70;99.90
22540;DHT22;11436;50.860;4.334;2022-10-16T12:00:09;18.50;99.90
22540;DHT22;11436;50.860;4.334;2022-10-16T12:08:13;19.30;99.90
22540;DHT22;11436;50.860;4.334;2022-10-16T12:10:42;19.60;99.90
22540;DHT22;11436;50.860;4.334;2022-10-16T12:13:34;20.10;99.90
22540;DHT22;11436;50.860;4.334;2022-10-16T12:18:41;20.30;99.90
22540;DHT22;11436;50.860;4.334;2022-10-16T12:21:07;20.30;99.90
22540;DHT22;11436;50.860;4.334;2022-10-16T12:26:04;20.20;99.90
22540;DHT22;11436;50.860;4.334;2022-10-16T12:28:32;20.30;99.90
22540;DHT22;11436;50.860;4.334;2022-10-16T12:31:02;20.40;99.90
22540;DHT22;11436;50.860;4.334;2022-10-16T12:33:30;20.40;99.90
22540;DHT22;11436;50.860;4.334;2022-10-16T12:35:59;20.60;99.90
22540;DHT22;11436;50.860;4.334;2022-10-16T12:38:28;20.30;99.90
22540;DHT22;11436;50.860;4.334;2022-10-16T12:40:59;19.90;99.90
22540;DHT22;11436;50.860;4.334;2022-10-16T12:43:27;20.10;99.90
22540;DHT22;11436;50.860;4.334;2022-10-16T12:48:30;20.00;99.90
22540;DHT22;11436;50.860;4.334;2022-10-16T12:50:56;19.90;99.90
22540;DHT22;11436;50.860;4.334;2022-10-16T12:53:24;20.00;99.90
22540;DHT22;11436;50.860;4.334;2022-10-16T12:56:04;20.10;99.90
22540;DHT22;11436;50.860;4.334;2022-10-16T13:01:25;20.10;99.90
22540;DHT22;11436;50.860;4.334;2022-10-16T13:06:51;20.30;99.90
22540;DHT22;11436;50.860;4.334;2022-10-16T13:11:52;20.50;99.90
22540;DHT22;11436;50.860;4.334;2022-10-16T13:23:06;20.80;99.90
22540;DHT22;11436;50.860;4.334;2022-10-16T13:25:44;20.90;99.90
22540;DHT22;11436;50.860;4.334;2022-10-16T13:28:13;21.00;99.90
22540;DHT22;11436;50.860;4.334;2022-10-16T13:35:54;21.20;99.90
22540;DHT22;11436;50.860;4.334;2022-10-16T13:38:22;21.20;99.90
22540;DHT22;11436;50.860;4.334;2022-10-16T13:43:20;21.10;99.90
22540;DHT22;11436;50.860;4.334;2022-10-16T13:46:24;21.00;99.90
22540;DHT22;11436;50.860;4.334;2022-10-16T13:49:01;21.00;99.90
22540;DHT22;11436;50.860;4.334;2022-10-16T13:51:28;21.10;99.90
22540;DHT22;11436;50.860;4.334;2022-10-16T13:53:55;21.10;99.90
22540;DHT22;11436;50.860;4.334;2022-10-16T13:56:25;20.90;99.90
22540;DHT22;11436;50.860;4.334;2022-10-16T13:59:27;20.70;99.90
22540;DHT22;11436;50.860;4.334;2022-10-16T14:01:58;21.00;99.90
22540;DHT22;11436;50.860;4.334;2022-10-16T14:04:32;21.00;99.90
22540;DHT22;11436;50.860;4.334;2022-10-16T14:06:58;20.90;99.90
22540;DHT22;11436;50.860;4.334;2022-10-16T14:09:28;20.70;99.90
22540;DHT22;11436;50.860;4.334;2022-10-16T14:12:08;20.70;99.90
22540;DHT22;11436;50.860;4.334;2022-10-16T14:14:44;20.90;99.90
22540;DHT22;11436;50.860;4.334;2022-10-16T14:19:50;20.70;99.90
22540;DHT22;11436;50.860;4.334;2022-10-16T14:22:39;20.90;99.90
22540;DHT22;11436;50.860;4.334;2022-10-16T14:27:45;21.00;99.90
22540;DHT22;11436;50.860;4.334;2022-10-16T14:30:17;20.90;99.90
22540;DHT22;11436;50.860;4.334;2022-10-16T14:38:38;20.70;99.90
22540;DHT22;11436;50.860;4.334;2022-10-16T14:41:05;20.60;99.90
22540;DHT22;11436;50.860;4.334;2022-10-16T14:43:37;20.80;99.90
22540;DHT22;11436;50.860;4.334;2022-10-16T14:46:16;20.90;99.90
22540;DHT22;11436;50.860;4.334;2022-10-16T14:48:45;21.00;99.90
22540;DHT22;11436;50.860;4.334;2022-10-16T14:51:16;21.10;99.90
22540;DHT22;11436;50.860;4.334;2022-10-16T14:53:41;21.00;99.90
22540;DHT22;11436;50.860;4.334;2022-10-16T14:56:28;21.00;99.90
22540;DHT22;11436;50.860;4.334;2022-10-16T14:58:55;21.00;99.90
22540;DHT22;11436;50.860;4.334;2022-10-16T15:01:21;21.10;99.90
22540;DHT22;11436;50.860;4.334;2022-10-16T15:03:47;21.20;99.90
22540;DHT22;11436;50.860;4.334;2022-10-16T15:06:15;21.10;99.90
22540;DHT22;11436;50.860;4.334;2022-10-16T15:08:41;21.10;99.90
22540;DHT22;11436;50.860;4.334;2022-10-16T15:11:13;21.00;99.90
22540;DHT22;11436;50.860;4.334;2022-10-16T15:13:39;20.90;99.90
22540;DHT22;11436;50.860;4.334;2022-10-16T15:16:11;20.80;99.90
22540;DHT22;11436;50.860;4.334;2022-10-16T15:18:37;20.70;99.90
22540;DHT22;11436;50.860;4.334;2022-10-16T15:21:03;20.60;99.90
22540;DHT22;11436;50.860;4.334;2022-10-16T15:23:29;20.60;99.90
22540;DHT22;11436;50.860;4.334;2022-10-16T15:25:56;20.60;99.90
22540;DHT22;11436;50.860;4.334;2022-10-16T15:28:23;20.50;99.90
22540;DHT22;11436;50.860;4.334;2022-10-16T15:30:52;20.40;99.90
22540;DHT22;11436;50.860;4.334;2022-10-16T15:33:21;20.40;99.90
22540;DHT22;11436;50.860;4.334;2022-10-16T15:35:51;20.50;99.90
22540;DHT22;11436;50.860;4.334;2022-10-16T15:38:19;20.40;99.90
22540;DHT22;11436;50.860;4.334;2022-10-16T15:40:46;20.30;99.90
22540;DHT22;11436;50.860;4.334;2022-10-16T15:43:12;20.20;99.90
22540;DHT22;11436;50.860;4.334;2022-10-16T15:45:38;20.30;99.90
22540;DHT22;11436;50.860;4.334;2022-10-16T15:48:04;20.40;99.90
22540;DHT22;11436;50.860;4.334;2022-10-16T15:50:31;20.50;99.90
22540;DHT22;11436;50.860;4.334;2022-10-16T15:52:57;20.30;99.90
22540;DHT22;11436;50.860;4.334;2022-10-16T15:55:23;20.10;99.90
22540;DHT22;11436;50.860;4.334;2022-10-16T15:57:49;20.00;99.90
22540;DHT22;11436;50.860;4.334;2022-10-16T16:00:18;20.00;99.90
22540;DHT22;11436;50.860;4.334;2022-10-16T16:02:50;20.00;99.90
22540;DHT22;11436;50.860;4.334;2022-10-16T16:05:17;19.90;99.90
22540;DHT22;11436;50.860;4.334;2022-10-16T16:07:43;19.90;99.90
22540;DHT22;11436;50.860;4.334;2022-10-16T16:10:10;20.00;99.90
22540;DHT22;11436;50.860;4.334;2022-10-16T16:12:37;20.10;99.90
22540;DHT22;11436;50.860;4.334;2022-10-16T16:15:07;20.20;99.90
22540;DHT22;11436;50.860;4.334;2022-10-16T16:17:33;20.30;99.90
22540;DHT22;11436;50.860;4.334;2022-10-16T16:20:00;20.50;99.90
22540;DHT22;11436;50.860;4.334;2022-10-16T16:22:27;20.30;99.90
22540;DHT22;11436;50.860;4.334;2022-10-16T16:24:53;20.20;99.90
22540;DHT22;11436;50.860;4.334;2022-10-16T16:27:19;20.10;99.90
22540;DHT22;11436;50.860;4.334;2022-10-16T16:29:47;20.10;99.90
22540;DHT22;11436;50.860;4.334;2022-10-16T16:32:13;20.00;99.90
22540;DHT22;11436;50.860;4.334;2022-10-16T16:34:39;20.20;99.90
22540;DHT22;11436;50.860;4.334;2022-10-16T16:37:04;20.10;99.90
22540;DHT22;11436;50.860;4.334;2022-10-16T16:39:31;20.00;99.90
22540;DHT22;11436;50.860;4.334;2022-10-16T16:41:57;19.90;99.90
22540;DHT22;11436;50.860;4.334;2022-10-16T16:44:26;20.20;99.90
22540;DHT22;11436;50.860;4.334;2022-10-16T16:46:52;20.10;99.90
22540;DHT22;11436;50.860;4.334;2022-10-16T16:49:18;20.10;99.90
22540;DHT22;11436;50.860;4.334;2022-10-16T16:51:44;20.10;99.90
22540;DHT22;11436;50.860;4.334;2022-10-16T16:54:10;20.10;99.90
22540;DHT22;11436;50.860;4.334;2022-10-16T16:56:38;20.20;99.90
22540;DHT22;11436;50.860;4.334;2022-10-16T16:59:04;20.10;99.90
22540;DHT22;11436;50.860;4.334;2022-10-16T17:01:30;20.00;99.90
22540;DHT22;11436;50.860;4.334;2022-10-16T17:03:58;20.00;99.90
22540;DHT22;11436;50.860;4.334;2022-10-16T17:06:27;20.00;99.90
22540;DHT22;11436;50.860;4.334;2022-10-16T17:08:55;19.90;99.90
22540;DHT22;11436;50.860;4.334;2022-10-16T17:11:22;19.90;99.90
22540;DHT22;11436;50.860;4.334;2022-10-16T17:13:49;19.60;99.90
22540;DHT22;11436;50.860;4.334;2022-10-16T17:16:16;19.50;99.90
22540;DHT22;11436;50.860;4.334;2022-10-16T17:18:41;19.30;99.90
22540;DHT22;11436;50.860;4.334;2022-10-16T17:21:08;19.20;99.90
22540;DHT22;11436;50.860;4.334;2022-10-16T17:23:35;19.00;99.90
22540;DHT22;11436;50.860;4.334;2022-10-16T17:26:10;18.80;99.90
22540;DHT22;11436;50.860;4.334;2022-10-16T17:28:36;18.80;99.90
22540;DHT22;11436;50.860;4.334;2022-10-16T17:31:12;18.70;99.90
22540;DHT22;11436;50.860;4.334;2022-10-16T17:33:39;18.70;99.90
22540;DHT22;11436;50.860;4.334;2022-10-16T17:36:05;18.80;99.90
22540;DHT22;11436;50.860;4.334;2022-10-16T17:38:31;18.70;99.90
22540;DHT22;11436;50.860;4.334;2022-10-16T17:40:57;18.50;99.90
22540;DHT22;11436;50.860;4.334;2022-10-16T17:43:23;18.60;99.90
22540;DHT22;11436;50.860;4.334;2022-10-16T17:45:49;18.50;99.90
22540;DHT22;11436;50.860;4.334;2022-10-16T17:48:15;18.60;99.90
22540;DHT22;11436;50.860;4.334;2022-10-16T17:50:42;18.50;99.90
22540;DHT22;11436;50.860;4.334;2022-10-16T17:53:08;18.60;99.90
22540;DHT22;11436;50.860;4.334;2022-10-16T17:55:38;18.50;99.90
22540;DHT22;11436;50.860;4.334;2022-10-16T17:58:04;18.40;99.90